Time;durP1;ratioP1;P1;durP2;ratioP2;P2;SDS_P1;SDS_P2;PMS_P1;PMS_P2;Temp;Humidity;BMP_temperature;BMP_pressure;BME280_temperature;BME280_humidity;BME280_pressure;Samples;Min_cycle;Max_cycle;Signal;HPM_P1;HPM_P2
2022/07/24 00:01:02;;;;;;;0.30;0.30;;;24.90;53.30;;;;;;6252006;28;20094;-42
2022/07/24 00:04:05;;;;;;;0.30;0.30;;;24.90;53.20;;;;;;6256839;28;20043;-43
2022/07/24 00:07:07;;;;;;;0.30;0.20;;;25.10;53.30;;;;;;6253130;28;20041;-43
2022/07/24 00:10:10;;;;;;;0.20;0.20;;;25.00;53.20;;;;;;6256150;28;20032;-46
2022/07/24 00:13:12;;;;;;;0.38;0.38;;;24.90;53.10;;;;;;6258171;28;20036;-42
2022/07/24 00:16:13;;;;;;;0.20;0.20;;;25.00;53.20;;;;;;6258223;28;20036;-43
2022/07/24 00:19:16;;;;;;;0.25;0.25;;;24.90;53.10;;;;;;6257741;28;20159;-42
2022/07/24 00:22:17;;;;;;;0.17;0.10;;;24.90;53.10;;;;;;6258898;28;20044;-49
2022/07/24 00:25:19;;;;;;;0.20;0.20;;;24.90;53.00;;;;;;6256925;28;20819;-47
2022/07/24 00:28:21;;;;;;;0.30;0.20;;;24.90;53.00;;;;;;6255125;28;21621;-44
2022/07/24 00:31:23;;;;;;;0.10;0.10;;;25.00;53.00;;;;;;6259788;28;20048;-45
2022/07/24 00:34:25;;;;;;;0.20;0.20;;;24.90;53.00;;;;;;6261306;28;20035;-43
2022/07/24 00:37:27;;;;;;;0.20;0.20;;;25.20;53.20;;;;;;6260898;28;21050;-41
2022/07/24 00:40:29;;;;;;;0.20;0.20;;;25.00;53.00;;;;;;6262531;28;20149;-46
2022/07/24 00:43:31;;;;;;;0.30;0.20;;;24.90;52.90;;;;;;6251396;28;20964;-43
2022/07/24 00:46:34;;;;;;;0.30;0.20;;;25.00;52.90;;;;;;6256562;28;21077;-45
2022/07/24 00:49:36;;;;;;;0.20;0.20;;;25.00;53.00;;;;;;6263954;28;20032;-45
2022/07/24 00:52:38;;;;;;;0.20;0.20;;;24.90;52.80;;;;;;6258401;28;20041;-43
2022/07/24 00:55:41;;;;;;;0.10;0.10;;;25.00;52.90;;;;;;6241156;28;20217;-41
2022/07/24 00:58:44;;;;;;;0.25;0.20;;;25.00;52.90;;;;;;6242701;28;20029;-46
2022/07/24 01:01:46;;;;;;;0.15;0.15;;;24.90;52.80;;;;;;6259622;28;20197;-45
2022/07/24 01:04:52;;;;;;;0.20;0.20;;;24.80;52.70;;;;;;6246234;28;20102;-43
2022/07/24 01:07:53;;;;;;;0.20;0.20;;;24.90;52.80;;;;;;6245035;28;20150;-43
2022/07/24 01:10:56;;;;;;;0.20;0.20;;;24.90;52.80;;;;;;6252308;28;20168;-42
2022/07/24 01:13:58;;;;;;;0.20;0.20;;;25.00;52.90;;;;;;6259024;28;20043;-41
2022/07/24 01:16:59;;;;;;;0.20;0.15;;;24.90;52.80;;;;;;6264651;28;20045;-43
2022/07/24 01:20:01;;;;;;;0.25;0.20;;;24.80;52.90;;;;;;6246469;28;20086;-42
2022/07/24 01:23:03;;;;;;;0.20;0.20;;;24.80;52.80;;;;;;6247787;28;20149;-42
2022/07/24 01:26:07;;;;;;;0.10;0.10;;;24.90;53.00;;;;;;6258400;28;21858;-43
2022/07/24 01:29:09;;;;;;;0.30;0.20;;;24.80;52.90;;;;;;6241205;28;20147;-42
2022/07/24 01:32:11;;;;;;;0.10;0.10;;;25.10;53.00;;;;;;6256229;28;20036;-43
2022/07/24 01:35:13;;;;;;;0.10;0.10;;;24.90;52.90;;;;;;6256904;28;20047;-41
2022/07/24 01:38:25;;;;;;;0.30;0.30;;;24.90;53.00;;;;;;6257962;28;20160;-41
2022/07/24 01:41:26;;;;;;;0.20;0.20;;;24.90;53.00;;;;;;6244650;28;20068;-43
2022/07/24 01:44:28;;;;;;;0.20;0.10;;;24.90;53.00;;;;;;6235641;28;20078;-44
2022/07/24 01:47:29;;;;;;;0.20;0.20;;;25.00;53.10;;;;;;6248142;28;20159;-40
2022/07/24 01:50:32;;;;;;;0.20;0.20;;;24.80;53.00;;;;;;6233212;28;20928;-42
2022/07/24 01:53:34;;;;;;;0.30;0.30;;;24.80;53.00;;;;;;6220277;28;20063;-45
2022/07/24 01:56:35;;;;;;;0.20;0.20;;;24.80;53.00;;;;;;6238709;28;20154;-44
2022/07/24 01:59:37;;;;;;;0.20;0.13;;;24.80;53.00;;;;;;6243088;28;20076;-42
2022/07/24 02:02:39;;;;;;;0.10;0.10;;;24.70;53.00;;;;;;6242215;28;20188;-41
2022/07/24 02:05:41;;;;;;;0.20;0.20;;;24.80;53.10;;;;;;6240004;28;21211;-44
2022/07/24 02:08:43;;;;;;;0.20;0.20;;;25.10;53.20;;;;;;6242522;28;20086;-44
2022/07/24 02:11:45;;;;;;;0.20;0.10;;;24.70;53.10;;;;;;6245211;28;20048;-44
2022/07/24 02:14:46;;;;;;;0.50;0.20;;;24.80;53.10;;;;;;6250124;28;20394;-42
2022/07/24 02:17:49;;;;;;;0.13;0.13;;;24.80;53.10;;;;;;6242448;28;20044;-46
2022/07/24 02:20:51;;;;;;;0.10;0.10;;;24.70;53.10;;;;;;6233172;28;20048;-41
2022/07/24 02:23:53;;;;;;;0.30;0.30;;;24.70;53.10;;;;;;6252888;28;20179;-42
2022/07/24 02:26:55;;;;;;;0.10;0.10;;;24.80;53.20;;;;;;6242464;28;20479;-41
2022/07/24 02:30:06;;;;;;;0.20;0.20;;;24.90;53.20;;;;;;6246399;28;20371;-45
2022/07/24 02:33:08;;;;;;;0.28;0.28;;;24.80;53.20;;;;;;6253300;28;20963;-48
2022/07/24 02:36:09;;;;;;;0.20;0.20;;;24.70;53.10;;;;;;6251281;28;20040;-43
2022/07/24 02:39:11;;;;;;;0.32;0.25;;;24.80;53.20;;;;;;6256185;28;20322;-41
2022/07/24 02:42:13;;;;;;;0.20;0.20;;;24.70;53.20;;;;;;6254206;28;20044;-44
2022/07/24 02:45:18;;;;;;;0.20;0.10;;;24.70;53.20;;;;;;6252339;28;20040;-44
2022/07/24 02:48:20;;;;;;;0.20;0.20;;;24.70;53.20;;;;;;6243723;28;20300;-43
2022/07/24 02:51:22;;;;;;;0.10;0.10;;;24.80;53.20;;;;;;6251075;28;20043;-40
2022/07/24 02:54:24;;;;;;;0.20;0.20;;;24.70;53.10;;;;;;6235553;28;20421;-42
2022/07/24 02:57:25;;;;;;;0.40;0.20;;;24.70;53.10;;;;;;6244486;28;20686;-47
2022/07/24 03:00:27;;;;;;;0.17;0.17;;;24.70;53.10;;;;;;6249614;28;20154;-43
2022/07/24 03:03:28;;;;;;;0.20;0.20;;;24.80;53.10;;;;;;6248594;28;20559;-43
2022/07/24 03:06:30;;;;;;;0.20;0.20;;;24.80;53.10;;;;;;6247287;28;20700;-43
2022/07/24 03:09:32;;;;;;;0.20;0.20;;;24.30;52.80;;;;;;6245140;28;20043;-43
2022/07/24 03:12:34;;;;;;;0.30;0.28;;;24.70;53.00;;;;;;6249517;28;20152;-42
2022/07/24 03:15:36;;;;;;;0.15;0.10;;;24.70;53.20;;;;;;6236957;28;20381;-43
2022/07/24 03:18:37;;;;;;;0.22;0.22;;;24.70;53.00;;;;;;6253650;28;20828;-43
2022/07/24 03:21:39;;;;;;;0.35;0.30;;;24.70;52.90;;;;;;6255008;28;20205;-45
2022/07/24 03:24:50;;;;;;;0.35;0.20;;;24.60;52.90;;;;;;6253715;28;20916;-42
2022/07/24 03:27:52;;;;;;;0.28;0.20;;;24.70;52.90;;;;;;6252460;28;20059;-45
2022/07/24 03:30:53;;;;;;;0.20;0.20;;;24.70;52.90;;;;;;6253184;28;20441;-41
2022/07/24 03:33:55;;;;;;;0.20;0.20;;;24.70;52.90;;;;;;6252730;28;20719;-43
2022/07/24 03:37:00;;;;;;;0.25;0.20;;;24.70;52.90;;;;;;6250286;28;20171;-43
2022/07/24 03:40:03;;;;;;;0.40;0.30;;;24.90;53.00;;;;;;6251739;28;20051;-41
2022/07/24 03:43:05;;;;;;;0.28;0.28;;;24.70;52.80;;;;;;6251518;28;20237;-42
2022/07/24 03:46:10;;;;;;;0.17;0.17;;;24.70;52.80;;;;;;6227213;28;20305;-41
2022/07/24 03:49:11;;;;;;;0.20;0.20;;;24.50;52.70;;;;;;6249515;28;20252;-42
2022/07/24 03:52:13;;;;;;;0.20;0.20;;;24.70;52.90;;;;;;6211723;28;20044;-44
2022/07/24 03:55:16;;;;;;;0.20;0.20;;;24.70;52.80;;;;;;6237341;28;20064;-44
2022/07/24 03:58:17;;;;;;;0.32;0.20;;;24.70;52.80;;;;;;6247991;28;20089;-42
2022/07/24 04:01:19;;;;;;;0.10;0.10;;;24.60;52.70;;;;;;6248742;28;20300;-40
2022/07/24 04:04:20;;;;;;;0.20;0.20;;;24.50;52.60;;;;;;6247072;28;20550;-42
2022/07/24 04:07:25;;;;;;;0.50;0.28;;;24.60;52.70;;;;;;6248067;28;20325;-45
2022/07/24 04:10:27;;;;;;;0.45;0.35;;;24.60;52.70;;;;;;6249537;28;20434;-45
2022/07/24 04:13:30;;;;;;;0.40;0.20;;;24.70;52.70;;;;;;6253112;28;20062;-44
2022/07/24 04:16:32;;;;;;;0.20;0.20;;;24.60;52.70;;;;;;6215884;28;20228;-44
2022/07/24 04:19:34;;;;;;;0.22;0.20;;;24.70;52.70;;;;;;6246555;28;20150;-44
2022/07/24 04:22:36;;;;;;;0.40;0.20;;;24.70;52.70;;;;;;6249333;28;20276;-45
2022/07/24 04:25:41;;;;;;;0.20;0.20;;;24.50;52.60;;;;;;6247737;28;20040;-42
2022/07/24 04:28:44;;;;;;;0.20;0.20;;;24.60;52.70;;;;;;6247763;28;20519;-43
2022/07/24 04:31:45;;;;;;;0.20;0.20;;;24.60;52.60;;;;;;6225776;28;20067;-41
2022/07/24 04:34:47;;;;;;;0.20;0.20;;;24.60;52.60;;;;;;6243736;28;20228;-41
2022/07/24 04:37:49;;;;;;;0.20;0.20;;;24.60;52.60;;;;;;6246592;28;20447;-47
2022/07/24 04:40:52;;;;;;;0.10;0.10;;;24.60;52.60;;;;;;6232067;28;21001;-43
2022/07/24 04:43:53;;;;;;;0.20;0.20;;;24.60;52.60;;;;;;6244465;28;20479;-43
2022/07/24 04:46:55;;;;;;;0.20;0.20;;;24.60;52.70;;;;;;6238948;28;20392;-44
2022/07/24 04:49:56;;;;;;;1.38;0.20;;;24.70;52.70;;;;;;6246903;28;20044;-41
2022/07/24 04:52:58;;;;;;;0.10;0.10;;;24.50;52.60;;;;;;6229192;28;20596;-43
2022/07/24 04:56:00;;;;;;;0.22;0.22;;;24.60;52.60;;;;;;6221889;28;20155;-43
2022/07/24 04:59:02;;;;;;;0.20;0.20;;;24.60;52.60;;;;;;6248410;28;20121;-44
2022/07/24 05:02:05;;;;;;;0.20;0.20;;;24.50;52.60;;;;;;6230402;28;20120;-43
2022/07/24 05:05:06;;;;;;;0.20;0.20;;;24.60;52.70;;;;;;6239817;28;20060;-43
2022/07/24 05:08:08;;;;;;;0.50;0.25;;;24.50;52.60;;;;;;6236328;28;20055;-43
2022/07/24 05:11:10;;;;;;;0.10;0.10;;;24.60;52.60;;;;;;6243291;28;20049;-47
2022/07/24 05:14:12;;;;;;;0.20;0.20;;;24.50;52.60;;;;;;6245384;28;20596;-44
2022/07/24 05:17:13;;;;;;;0.20;0.13;;;24.60;52.60;;;;;;6246739;28;20637;-41
2022/07/24 05:20:15;;;;;;;0.20;0.20;;;24.60;52.70;;;;;;6245492;28;20109;-41
2022/07/24 05:23:16;;;;;;;0.20;0.20;;;24.40;52.60;;;;;;6241602;28;20138;-43
2022/07/24 05:26:18;;;;;;;0.20;0.20;;;24.50;52.60;;;;;;6245039;28;20075;-41
2022/07/24 05:29:25;;;;;;;0.30;0.20;;;24.50;52.70;;;;;;6244734;28;20468;-43
2022/07/24 05:32:26;;;;;;;0.20;0.20;;;24.50;52.60;;;;;;6228348;28;20569;-44
2022/07/24 05:35:28;;;;;;;0.28;0.22;;;24.50;52.70;;;;;;6243208;28;20485;-44
2022/07/24 05:38:31;;;;;;;0.20;0.20;;;24.50;52.70;;;;;;6245678;28;20040;-48
2022/07/24 05:41:33;;;;;;;0.20;0.20;;;24.50;52.70;;;;;;6239914;28;20044;-43
2022/07/24 05:44:34;;;;;;;0.22;0.20;;;24.50;52.70;;;;;;6224025;28;20330;-44
2022/07/24 05:47:41;;;;;;;0.20;0.20;;;24.50;52.70;;;;;;6240272;28;20036;-45
2022/07/24 05:50:42;;;;;;;0.25;0.25;;;24.60;52.70;;;;;;6226847;28;20044;-42
2022/07/24 05:53:44;;;;;;;0.30;0.20;;;24.50;52.70;;;;;;6217045;28;20310;-44
2022/07/24 05:56:46;;;;;;;0.30;0.30;;;24.50;52.70;;;;;;6231228;28;20961;-43
2022/07/24 05:59:47;;;;;;;0.20;0.20;;;24.50;52.70;;;;;;6241263;28;20823;-48
2022/07/24 06:02:49;;;;;;;0.50;0.20;;;24.50;52.70;;;;;;6239070;28;20072;-45
2022/07/24 06:05:51;;;;;;;0.20;0.20;;;24.50;52.70;;;;;;6238207;28;20779;-44
2022/07/24 06:08:52;;;;;;;0.50;0.30;;;24.30;52.70;;;;;;6237723;28;20045;-45
2022/07/24 06:11:55;;;;;;;0.20;0.20;;;24.50;52.80;;;;;;6237399;28;20384;-46
2022/07/24 06:14:56;;;;;;;0.20;0.20;;;24.50;52.80;;;;;;6237287;28;20103;-41
2022/07/24 06:17:58;;;;;;;0.30;0.20;;;24.50;52.80;;;;;;6235670;28;20521;-42
2022/07/24 06:20:59;;;;;;;0.20;0.20;;;24.50;52.80;;;;;;6238773;28;20419;-41
2022/07/24 06:24:01;;;;;;;0.20;0.20;;;24.50;52.80;;;;;;6235707;28;20075;-43
2022/07/24 06:27:04;;;;;;;0.30;0.20;;;24.60;52.90;;;;;;6233437;28;20362;-44
2022/07/24 06:30:15;;;;;;;0.20;0.20;;;24.50;52.80;;;;;;6240166;28;20938;-44
2022/07/24 06:33:17;;;;;;;0.10;0.10;;;24.50;52.80;;;;;;6222107;28;20067;-42
2022/07/24 06:36:18;;;;;;;0.15;0.15;;;24.50;52.80;;;;;;6236079;28;20571;-44
2022/07/24 06:39:20;;;;;;;0.35;0.30;;;24.60;52.90;;;;;;6240436;28;20035;-41
2022/07/24 06:42:22;;;;;;;0.30;0.30;;;24.50;52.80;;;;;;6240816;28;20851;-45
2022/07/24 06:45:24;;;;;;;0.28;0.25;;;24.40;53.40;;;;;;6238896;28;20094;-47
2022/07/24 06:48:25;;;;;;;0.20;0.20;;;24.50;52.80;;;;;;6226030;28;20332;-42
2022/07/24 06:51:27;;;;;;;0.20;0.20;;;24.60;52.80;;;;;;6240006;28;20220;-41
2022/07/24 06:54:28;;;;;;;0.20;0.20;;;24.70;52.90;;;;;;6233318;28;20486;-44
2022/07/24 06:57:30;;;;;;;0.20;0.20;;;24.70;52.80;;;;;;6207027;28;20334;-43
2022/07/24 07:00:32;;;;;;;0.32;0.20;;;24.60;52.80;;;;;;6241139;28;20293;-43
2022/07/24 07:03:34;;;;;;;0.20;0.20;;;24.70;52.80;;;;;;6234671;28;20185;-44
2022/07/24 07:06:35;;;;;;;0.20;0.20;;;24.50;53.30;;;;;;6237441;28;20032;-46
2022/07/24 07:09:43;;;;;;;0.22;0.20;;;24.80;52.90;;;;;;6228515;28;20326;-43
2022/07/24 07:12:45;;;;;;;0.47;0.30;;;24.70;52.80;;;;;;6236389;28;20779;-44
2022/07/24 07:15:46;;;;;;;0.32;0.20;;;24.70;52.80;;;;;;6238928;28;20337;-44
2022/07/24 07:18:49;;;;;;;0.50;0.47;;;24.70;52.70;;;;;;6240159;28;20437;-47
2022/07/24 07:21:50;;;;;;;0.50;0.28;;;24.80;52.80;;;;;;6235288;28;20162;-41
2022/07/24 07:24:53;;;;;;;0.10;0.10;;;24.70;52.70;;;;;;6241369;28;20129;-48
2022/07/24 07:27:55;;;;;;;0.10;0.10;;;24.80;52.70;;;;;;6242397;28;20477;-45
2022/07/24 07:30:56;;;;;;;0.20;0.20;;;24.90;52.80;;;;;;6241578;28;20452;-45
2022/07/24 07:33:58;;;;;;;0.28;0.10;;;24.80;52.60;;;;;;6240386;28;20349;-42
2022/07/24 07:37:00;;;;;;;0.20;0.20;;;24.80;52.60;;;;;;6217243;28;20231;-46
2022/07/24 07:40:02;;;;;;;0.20;0.20;;;24.80;52.50;;;;;;6238168;28;20091;-45
2022/07/24 07:43:05;;;;;;;0.20;0.20;;;24.70;52.50;;;;;;6238573;28;20465;-44
2022/07/24 07:46:07;;;;;;;0.20;0.20;;;25.00;52.60;;;;;;6215170;28;20331;-43
2022/07/24 07:49:08;;;;;;;0.20;0.20;;;25.10;52.60;;;;;;6235743;28;20997;-41
2022/07/24 07:52:11;;;;;;;0.20;0.20;;;24.90;52.50;;;;;;6236931;28;20040;-42
2022/07/24 07:55:13;;;;;;;0.15;0.15;;;24.90;52.40;;;;;;6208229;28;20041;-42
2022/07/24 07:58:15;;;;;;;0.10;0.10;;;25.00;52.50;;;;;;6233657;28;20657;-43
2022/07/24 08:01:16;;;;;;;0.10;0.10;;;24.90;52.40;;;;;;6234430;28;20287;-42
2022/07/24 08:04:21;;;;;;;0.22;0.20;;;25.00;52.40;;;;;;6240950;28;21051;-44
2022/07/24 08:07:23;;;;;;;0.20;0.20;;;25.00;52.40;;;;;;6239104;28;20040;-45
2022/07/24 08:10:27;;;;;;;0.20;0.20;;;24.90;52.30;;;;;;6237948;28;20503;-43
2022/07/24 08:13:29;;;;;;;0.20;0.20;;;25.00;52.40;;;;;;6234327;28;20985;-42
2022/07/24 08:16:31;;;;;;;0.10;0.10;;;25.00;52.40;;;;;;6239023;28;20043;-44
2022/07/24 08:19:36;;;;;;;0.20;0.20;;;24.90;52.30;;;;;;6224149;28;20512;-46
2022/07/24 08:22:37;;;;;;;0.20;0.20;;;25.00;52.30;;;;;;6224861;28;20063;-45
2022/07/24 08:25:39;;;;;;;0.20;0.20;;;25.10;52.30;;;;;;6234286;28;20375;-44
2022/07/24 08:28:41;;;;;;;0.20;0.20;;;25.10;52.30;;;;;;6229416;28;20294;-45
2022/07/24 08:31:43;;;;;;;0.20;0.20;;;25.00;52.20;;;;;;6238809;28;20339;-43
2022/07/24 08:34:44;;;;;;;0.20;0.17;;;24.20;51.80;;;;;;6241169;28;20174;-42
2022/07/24 08:37:46;;;;;;;0.20;0.20;;;25.10;52.20;;;;;;6239937;28;20732;-45
2022/07/24 08:40:48;;;;;;;0.10;0.10;;;25.10;52.20;;;;;;6226672;28;20469;-44
2022/07/24 08:43:53;;;;;;;0.32;0.20;;;25.00;52.10;;;;;;6240618;28;20602;-43
2022/07/24 08:46:57;;;;;;;0.20;0.20;;;25.30;52.30;;;;;;6240613;28;20439;-44
2022/07/24 08:50:01;;;;;;;0.20;0.20;;;25.10;51.90;;;;;;6233205;28;20579;-44
2022/07/24 08:53:03;;;;;;;0.25;0.22;;;25.10;51.70;;;;;;6242032;28;20703;-45
2022/07/24 08:56:05;;;;;;;0.20;0.20;;;25.20;51.60;;;;;;6207730;28;20074;-45
2022/07/24 08:59:17;;;;;;;0.30;0.20;;;25.10;51.40;;;;;;6237070;28;20043;-45
2022/07/24 09:02:27;;;;;;;0.20;0.20;;;25.10;51.20;;;;;;6233468;28;20048;-45
2022/07/24 09:05:32;;;;;;;0.50;0.40;;;25.10;51.20;;;;;;6237933;28;20147;-43
2022/07/24 09:08:34;;;;;;;0.20;0.20;;;25.10;51.00;;;;;;6235320;28;20391;-43
2022/07/24 09:11:37;;;;;;;0.30;0.25;;;25.20;51.10;;;;;;6230358;28;20040;-44
2022/07/24 09:14:44;;;;;;;0.20;0.20;;;25.00;50.80;;;;;;6233247;28;20195;-41
2022/07/24 09:17:49;;;;;;;0.28;0.20;;;25.10;50.90;;;;;;6235181;28;20146;-45
2022/07/24 09:20:51;;;;;;;0.20;0.20;;;25.10;50.80;;;;;;6238255;28;20788;-44
2022/07/24 09:23:52;;;;;;;0.20;0.20;;;25.10;50.70;;;;;;6235458;28;20810;-47
2022/07/24 09:26:56;;;;;;;0.20;0.20;;;25.10;50.60;;;;;;6238070;28;20040;-45
2022/07/24 09:29:58;;;;;;;0.20;0.20;;;25.10;50.60;;;;;;6236565;28;20119;-43
2022/07/24 09:33:03;;;;;;;0.30;0.30;;;25.10;50.50;;;;;;6228042;28;20902;-46
2022/07/24 09:36:12;;;;;;;0.20;0.20;;;25.10;50.40;;;;;;6197418;28;20044;-44
2022/07/24 09:39:18;;;;;;;0.35;0.35;;;25.20;50.30;;;;;;6203040;28;20223;-42
2022/07/24 09:42:30;;;;;;;0.20;0.10;;;25.10;50.10;;;;;;6229594;28;20468;-46
2022/07/24 09:45:52;;;;;;;0.35;0.30;;;25.10;50.10;;;;;;6203279;28;20361;-42
2022/07/24 09:48:57;;;;;;;0.30;0.20;;;25.00;49.80;;;;;;6220227;28;20402;-43
2022/07/24 09:52:13;;;;;;;0.22;0.20;;;25.10;49.90;;;;;;6201679;28;20045;-41
2022/07/24 09:55:24;;;;;;;0.32;0.22;;;25.20;49.80;;;;;;6208928;28;20070;-43
2022/07/24 09:58:26;;;;;;;;;;;25.20;49.70;;;;;;6206675;28;20095;-44
2022/07/24 10:01:29;;;;;;;0.30;0.30;;;25.10;49.60;;;;;;6231200;28;20540;-45
2022/07/24 10:04:38;;;;;;;0.32;0.30;;;25.10;49.60;;;;;;6219971;28;20099;-44
2022/07/24 10:07:40;;;;;;;0.28;0.28;;;25.10;49.40;;;;;;6220199;28;20712;-47
2022/07/24 10:10:42;;;;;;;0.15;0.15;;;25.10;49.40;;;;;;6239845;28;20599;-43
2022/07/24 10:13:44;;;;;;;0.38;0.30;;;24.60;49.00;;;;;;6233391;28;20368;-41
2022/07/24 10:16:58;;;;;;;0.30;0.28;;;25.20;49.40;;;;;;6238587;28;20527;-43
2022/07/24 10:20:36;;;;;;;0.30;0.20;;;25.20;49.20;;;;;;6227042;28;20144;-43
2022/07/24 10:24:11;;;;;;;0.30;0.20;;;25.20;49.10;;;;;;6218412;28;20048;-45
2022/07/24 10:27:24;;;;;;;0.30;0.28;;;25.20;49.00;;;;;;6238129;28;20143;-44
2022/07/24 10:30:26;;;;;;;0.30;0.30;;;25.10;48.80;;;;;;6232479;28;20075;-45
2022/07/24 10:33:28;;;;;;;0.22;0.17;;;25.20;48.80;;;;;;6238005;28;20534;-47
2022/07/24 10:36:35;;;;;;;0.25;0.20;;;25.30;48.80;;;;;;6236895;28;20052;-42
2022/07/24 10:39:54;;;;;;;0.40;0.35;;;25.10;48.60;;;;;;6233904;28;20172;-43
2022/07/24 10:43:13;;;;;;;0.50;0.20;;;25.10;48.40;;;;;;6241563;28;20199;-46
2022/07/24 10:46:15;;;;;;;0.40;0.30;;;25.20;48.30;;;;;;6221022;28;20847;-43
2022/07/24 10:49:34;;;;;;;0.30;0.30;;;25.30;48.30;;;;;;6231524;28;20042;-43
2022/07/24 10:52:37;;;;;;;0.43;0.30;;;25.30;48.20;;;;;;6218306;28;20226;-46
2022/07/24 10:55:38;;;;;;;0.40;0.30;;;25.10;48.00;;;;;;6202422;28;20083;-48
2022/07/24 10:58:52;;;;;;;0.40;0.25;;;25.30;48.00;;;;;;6229387;28;20377;-44
2022/07/24 11:01:54;;;;;;;0.40;0.30;;;25.20;48.40;;;;;;6236479;28;20276;-42
2022/07/24 11:05:24;;;;;;;0.30;0.30;;;25.10;47.70;;;;;;6242415;28;20370;-46
2022/07/24 11:08:32;;;;;;;0.20;0.20;;;25.10;47.50;;;;;;6239059;28;20527;-46
2022/07/24 11:11:41;;;;;;;0.30;0.30;;;25.20;47.50;;;;;;6241354;28;20495;-42
2022/07/24 11:14:49;;;;;;;0.23;0.20;;;25.20;47.40;;;;;;6204851;28;20472;-41
2022/07/24 11:17:51;;;;;;;0.40;0.40;;;25.30;47.40;;;;;;6209260;28;20147;-46
2022/07/24 11:21:00;;;;;;;0.40;0.40;;;25.30;47.30;;;;;;6223227;28;20060;-47
2022/07/24 11:24:14;;;;;;;0.30;0.28;;;25.30;47.20;;;;;;6240655;28;20586;-42
2022/07/24 11:27:20;;;;;;;0.28;0.28;;;25.20;46.90;;;;;;6236572;28;20203;-42
2022/07/24 11:30:27;;;;;;;0.57;0.30;;;25.30;47.00;;;;;;6242010;28;20322;-44
2022/07/24 11:33:29;;;;;;;0.20;0.20;;;25.30;46.90;;;;;;6226989;28;20160;-43
2022/07/24 11:36:34;;;;;;;0.70;0.30;;;25.30;46.80;;;;;;6239880;28;20514;-42
2022/07/24 11:39:37;;;;;;;0.50;0.20;;;25.20;46.60;;;;;;6239166;28;20284;-45
2022/07/24 11:42:38;;;;;;;0.30;0.30;;;25.30;46.60;;;;;;6219320;28;20357;-44
2022/07/24 11:45:50;;;;;;;0.40;0.35;;;25.30;46.50;;;;;;6220732;28;20159;-45
2022/07/24 11:49:02;;;;;;;0.63;0.35;;;25.30;46.40;;;;;;6235132;28;20044;-44
2022/07/24 11:52:05;;;;;;;0.40;0.30;;;25.30;46.30;;;;;;6240165;28;20956;-43
2022/07/24 11:55:10;;;;;;;0.30;0.30;;;25.20;46.10;;;;;;6216137;28;20230;-43
2022/07/24 11:58:19;;;;;;;0.40;0.20;;;25.20;46.00;;;;;;6212952;28;20343;-44
2022/07/24 12:01:40;;;;;;;0.28;0.20;;;25.30;46.10;;;;;;6218874;28;20331;-45
2022/07/24 12:04:44;;;;;;;0.30;0.30;;;25.30;46.00;;;;;;6228580;28;20802;-42
2022/07/24 12:07:46;;;;;;;0.60;0.38;;;25.20;45.90;;;;;;6209489;28;20368;-43
2022/07/24 12:10:49;;;;;;;0.50;0.40;;;25.30;45.80;;;;;;6238788;28;20348;-43
2022/07/24 12:13:52;;;;;;;0.38;0.30;;;25.40;45.90;;;;;;6214868;28;20901;-47
2022/07/24 12:16:55;;;;;;;0.40;0.30;;;25.30;45.70;;;;;;6235149;28;20043;-44
2022/07/24 12:19:58;;;;;;;0.30;0.30;;;25.30;45.70;;;;;;6237009;28;20139;-44
2022/07/24 12:23:05;;;;;;;0.65;0.40;;;25.30;45.70;;;;;;6238120;28;20079;-47
2022/07/24 12:26:07;;;;;;;0.40;0.30;;;25.20;45.60;;;;;;6218025;28;20449;-45
2022/07/24 12:29:09;;;;;;;0.30;0.28;;;25.40;45.60;;;;;;6233673;28;20045;-43
2022/07/24 12:32:15;;;;;;;0.30;0.30;;;25.30;45.50;;;;;;6235796;28;20264;-46
2022/07/24 12:35:17;;;;;;;0.20;0.20;;;25.30;45.40;;;;;;6217033;28;20044;-42
2022/07/24 12:38:28;;;;;;;0.40;0.40;;;25.40;45.50;;;;;;6231512;28;21198;-45
2022/07/24 12:41:30;;;;;;;0.20;0.20;;;25.40;45.40;;;;;;6221773;28;20152;-45
2022/07/24 12:44:41;;;;;;;0.52;0.17;;;25.30;45.30;;;;;;6220607;28;20786;-46
2022/07/24 12:48:06;;;;;;;0.25;0.20;;;25.30;45.20;;;;;;6239265;28;20044;-41
2022/07/24 12:51:10;;;;;;;0.57;0.25;;;25.30;45.10;;;;;;6214191;28;20036;-42
2022/07/24 12:54:17;;;;;;;0.30;0.30;;;25.20;45.10;;;;;;6204553;28;20377;-42
2022/07/24 12:57:21;;;;;;;0.35;0.30;;;25.40;45.10;;;;;;6221960;28;20144;-44
2022/07/24 13:00:32;;;;;;;0.35;0.30;;;25.30;45.20;;;;;;6235205;28;20808;-45
2022/07/24 13:03:35;;;;;;;0.40;0.35;;;25.30;44.80;;;;;;6225625;28;20687;-44
2022/07/24 13:06:40;;;;;;;0.30;0.22;;;25.40;44.80;;;;;;6221558;28;20040;-46
2022/07/24 13:09:42;;;;;;;0.20;0.20;;;25.30;44.50;;;;;;6233105;28;20246;-46
2022/07/24 13:12:44;;;;;;;0.40;0.32;;;25.30;44.40;;;;;;6227787;28;20110;-44
2022/07/24 13:15:45;;;;;;;0.30;0.30;;;25.30;44.30;;;;;;6229976;28;20048;-43
2022/07/24 13:18:47;;;;;;;0.28;0.20;;;25.30;44.30;;;;;;6231968;28;20409;-42
2022/07/24 13:21:49;;;;;;;0.32;0.20;;;25.30;44.20;;;;;;6233032;28;20453;-43
2022/07/24 13:24:51;;;;;;;0.20;0.20;;;25.40;44.10;;;;;;6220407;28;20348;-43
2022/07/24 13:27:53;;;;;;;0.25;0.20;;;25.30;43.90;;;;;;6230454;28;20270;-45
2022/07/24 13:31:14;;;;;;;0.30;0.20;;;25.30;43.80;;;;;;6233270;28;20458;-42
2022/07/24 13:34:16;;;;;;;0.40;0.38;;;25.30;43.70;;;;;;6205237;28;20457;-42
2022/07/24 13:37:18;;;;;;;0.15;0.15;;;25.30;43.70;;;;;;6222304;28;20044;-44
2022/07/24 13:40:21;;;;;;;0.28;0.20;;;25.40;43.60;;;;;;6217613;28;20435;-47
2022/07/24 13:43:22;;;;;;;0.30;0.20;;;25.40;43.60;;;;;;6233952;28;20315;-48
2022/07/24 13:46:24;;;;;;;0.50;0.30;;;25.30;43.50;;;;;;6229142;28;20312;-44
2022/07/24 13:49:25;;;;;;;0.25;0.25;;;25.40;43.50;;;;;;6231241;28;20463;-42
2022/07/24 13:52:27;;;;;;;0.20;0.20;;;25.40;43.50;;;;;;6215058;28;20575;-44
2022/07/24 13:55:32;;;;;;;0.30;0.30;;;25.60;43.60;;;;;;6208271;28;20417;-41
2022/07/24 13:58:35;;;;;;;0.13;0.13;;;25.30;43.40;;;;;;6229068;28;20370;-41
2022/07/24 14:01:37;;;;;;;0.20;0.20;;;25.30;43.30;;;;;;6199170;28;20082;-45
2022/07/24 14:04:39;;;;;;;0.30;0.28;;;25.40;43.30;;;;;;6217473;28;20754;-46
2022/07/24 14:07:41;;;;;;;0.30;0.30;;;25.50;43.40;;;;;;6231819;28;20112;-44
2022/07/24 14:10:43;;;;;;;0.25;0.25;;;25.40;43.20;;;;;;6234792;28;20341;-43
2022/07/24 14:13:45;;;;;;;0.40;0.30;;;25.40;43.10;;;;;;6235787;28;20450;-45
2022/07/24 14:16:47;;;;;;;0.20;0.20;;;25.40;43.00;;;;;;6223079;28;20475;-45
2022/07/24 14:19:49;;;;;;;0.20;0.20;;;25.40;43.00;;;;;;6232880;28;20043;-44
2022/07/24 14:22:50;;;;;;;0.28;0.20;;;25.40;42.80;;;;;;6244422;28;20159;-45
2022/07/24 14:25:53;;;;;;;0.28;0.28;;;25.30;42.70;;;;;;6219331;28;20068;-44
2022/07/24 14:28:54;;;;;;;0.30;0.30;;;25.40;42.60;;;;;;6235967;28;20583;-44
2022/07/24 14:31:56;;;;;;;0.40;0.30;;;25.30;42.50;;;;;;6235817;28;20307;-44
2022/07/24 14:34:58;;;;;;;0.20;0.20;;;25.30;42.30;;;;;;6234390;28;20048;-43
2022/07/24 14:37:59;;;;;;;0.30;0.20;;;25.40;42.30;;;;;;6229245;28;20565;-40
2022/07/24 14:41:01;;;;;;;0.22;0.20;;;25.30;42.10;;;;;;6233774;28;20041;-45
2022/07/24 14:44:03;;;;;;;0.30;0.25;;;25.50;42.20;;;;;;6230682;28;20295;-43
2022/07/24 14:47:10;;;;;;;0.22;0.22;;;25.50;42.10;;;;;;6230986;28;20332;-46
2022/07/24 14:50:11;;;;;;;0.30;0.20;;;25.40;42.00;;;;;;6232007;28;20365;-45
2022/07/24 14:53:13;;;;;;;0.10;0.10;;;25.40;41.80;;;;;;6229183;28;20048;-45
2022/07/24 14:56:15;;;;;;;0.13;0.10;;;25.40;42.30;;;;;;6208623;28;20036;-44
2022/07/24 14:59:17;;;;;;;0.20;0.20;;;25.40;41.60;;;;;;6229975;28;20858;-44
2022/07/24 15:02:21;;;;;;;0.20;0.20;;;25.30;41.50;;;;;;6225348;28;20141;-44
2022/07/24 15:05:23;;;;;;;0.20;0.20;;;25.50;41.60;;;;;;6227957;28;20578;-46
2022/07/24 15:08:25;;;;;;;0.38;0.30;;;25.40;41.40;;;;;;6227885;28;20844;-47
2022/07/24 15:11:27;;;;;;;0.30;0.30;;;25.30;41.30;;;;;;6229279;28;20264;-43
2022/07/24 15:14:28;;;;;;;0.38;0.30;;;25.30;41.20;;;;;;6231188;28;20037;-42
2022/07/24 15:17:30;;;;;;;0.25;0.20;;;25.30;41.70;;;;;;6232623;28;20923;-45
2022/07/24 15:20:31;;;;;;;0.30;0.30;;;25.40;41.00;;;;;;6229921;28;20048;-42
2022/07/24 15:23:34;;;;;;;0.30;0.20;;;25.30;40.80;;;;;;6235224;28;20044;-42
2022/07/24 15:26:36;;;;;;;0.32;0.30;;;25.30;40.70;;;;;;6196820;28;20134;-44
2022/07/24 15:29:38;;;;;;;0.13;0.10;;;25.30;40.50;;;;;;6212484;28;20635;-43
2022/07/24 15:32:40;;;;;;;0.20;0.20;;;25.30;40.40;;;;;;6238679;28;20381;-47
2022/07/24 15:35:41;;;;;;;0.43;0.38;;;25.40;40.40;;;;;;6237744;28;20858;-46
2022/07/24 15:38:43;;;;;;;0.38;0.20;;;25.30;40.20;;;;;;6229596;28;20205;-42
2022/07/24 15:41:45;;;;;;;0.30;0.20;;;25.30;40.10;;;;;;6238640;28;20039;-44
2022/07/24 15:44:46;;;;;;;0.40;0.35;;;25.30;39.90;;;;;;6237165;28;20755;-42
2022/07/24 15:47:48;;;;;;;0.50;0.40;;;25.30;39.90;;;;;;6234968;28;20113;-42
2022/07/24 15:50:50;;;;;;;0.43;0.40;;;25.30;39.80;;;;;;6238087;28;20147;-43
2022/07/24 15:53:51;;;;;;;0.20;0.20;;;25.30;39.80;;;;;;6227032;28;20275;-42
2022/07/24 15:56:56;;;;;;;0.30;0.20;;;25.20;39.80;;;;;;6213347;28;20439;-46